createdAt,value
2022-09-23T00:00:05.527Z,98714.91
2022-09-23T00:03:06.861Z,98701.88
2022-09-23T00:06:10.655Z,98702.06
2022-09-23T00:09:12.059Z,98702.06
2022-09-23T00:12:13.399Z,98701.88
2022-09-23T00:15:14.772Z,98698.47
2022-09-23T00:18:16.213Z,98694.22
2022-09-23T00:21:17.645Z,98689.16
2022-09-23T00:24:20.790Z,98695.94
2022-09-23T00:27:22.183Z,98701.94
2022-09-23T00:30:23.683Z,98700.09
2022-09-23T00:33:25.118Z,98691.38
2022-09-23T00:36:26.638Z,98701.75
2022-09-23T00:39:28.001Z,98691.44
2022-09-23T00:42:29.334Z,98687.06
2022-09-23T00:45:31.135Z,98687.13
2022-09-23T00:48:32.459Z,98685.34
2022-09-23T00:51:38.647Z,98680.19
2022-09-23T00:54:40.071Z,98677.41
2022-09-23T00:57:41.404Z,98677.28
2022-09-23T01:00:42.789Z,98677.22
2022-09-23T01:03:44.613Z,98678.94
2022-09-23T01:06:46.234Z,98679.81
2022-09-23T01:09:47.577Z,98672.88
2022-09-23T01:13:05.133Z,98672.03
2022-09-23T01:16:06.439Z,98673.63
2022-09-23T01:19:26.749Z,98667.47
2022-09-23T01:22:37.112Z,98670.81
2022-09-23T01:26:00.088Z,98668.31
2022-09-23T01:29:13.182Z,98663.78
2022-09-23T01:32:25.169Z,98662.91
2022-09-23T01:35:31.341Z,98661.13
2022-09-23T01:38:51.526Z,98661.19
2022-09-23T01:41:59.961Z,98666.56
2022-09-23T01:45:24.831Z,98656.16
2022-09-23T01:48:32.436Z,98661.09
2022-09-23T01:51:35.639Z,98657.59
2022-09-23T01:54:41.331Z,98648.09
2022-09-23T01:57:47.214Z,98642.03
2022-09-23T02:00:53.949Z,98648.97
2022-09-23T02:04:09.805Z,98644.56
2022-09-23T02:07:16.953Z,98645.28
2022-09-23T02:10:24.046Z,98646.03
2022-09-23T02:13:34.302Z,98648.59
2022-09-23T02:16:36.015Z,98652.03
2022-09-23T02:19:40.239Z,98646.00
2022-09-23T02:22:51.181Z,98646.06
2022-09-23T02:26:08.611Z,98639.00
2022-09-23T02:29:24.647Z,98640.75
2022-09-23T02:32:28.868Z,98636.28
2022-09-23T02:35:33.307Z,98633.84
2022-09-23T02:38:38.678Z,98632.25
2022-09-23T02:41:50.058Z,98628.88
2022-09-23T02:44:51.400Z,98632.25
2022-09-23T02:47:54.465Z,98634.78
2022-09-23T02:50:55.861Z,98622.69
2022-09-23T02:53:57.270Z,98626.00
2022-09-23T02:56:59.490Z,98620.66
2022-09-23T03:00:02.189Z,98618.88
2022-09-23T03:03:06.494Z,98613.69
2022-09-23T03:06:43.103Z,98620.50
2022-09-23T03:10:03.185Z,98611.81
2022-09-23T03:13:17.159Z,98614.41
2022-09-23T03:16:22.477Z,98611.75
2022-09-23T03:19:25.490Z,98606.56
2022-09-23T03:22:26.802Z,98609.09
2022-09-23T03:25:28.271Z,98603.91
2022-09-23T03:28:29.641Z,98607.34
2022-09-23T03:31:31.517Z,98605.69
2022-09-23T03:34:33.141Z,98603.03
2022-09-23T03:37:53.435Z,98602.16
2022-09-23T03:40:54.828Z,98603.75
2022-09-23T03:43:58.402Z,98604.72
2022-09-23T03:46:59.921Z,98596.91
2022-09-23T03:50:01.313Z,98598.56
2022-09-23T03:53:02.691Z,98597.75
2022-09-23T03:56:04.134Z,98597.69
2022-09-23T03:59:05.515Z,98594.19
2022-09-23T04:02:07.352Z,98583.91
2022-09-23T04:05:08.968Z,98586.41
2022-09-23T04:08:10.323Z,98596.84
2022-09-23T04:11:11.658Z,98589.00
2022-09-23T04:14:13.488Z,98591.56
2022-09-23T04:17:14.812Z,98588.22
2022-09-23T04:20:17.296Z,98593.53
2022-09-23T04:23:18.669Z,98589.00
2022-09-23T04:26:20.042Z,98588.97
2022-09-23T04:29:21.577Z,98594.16
2022-09-23T04:32:24.450Z,98592.34
2022-09-23T04:35:25.837Z,98598.50
2022-09-23T04:38:27.259Z,98595.09
2022-09-23T04:41:28.701Z,98597.56
2022-09-23T04:44:30.069Z,98591.50
2022-09-23T04:47:31.778Z,98595.72
2022-09-23T04:50:33.809Z,98600.06
2022-09-23T04:53:35.380Z,98600.19
2022-09-23T04:56:36.721Z,98595.88
2022-09-23T04:59:38.134Z,98599.16
2022-09-23T05:02:43.397Z,98601.81
2022-09-23T05:05:46.089Z,98599.25
2022-09-23T05:08:48.480Z,98596.75
2022-09-23T05:11:50.154Z,98598.47
2022-09-23T05:14:51.553Z,98595.94
2022-09-23T05:17:52.889Z,98601.22
2022-09-23T05:20:55.238Z,98601.31
2022-09-23T05:23:58.925Z,98603.09
2022-09-23T05:27:00.879Z,98598.00
2022-09-23T05:30:02.250Z,98605.84
2022-09-23T05:33:03.701Z,98602.47
2022-09-23T05:36:05.084Z,98600.00
2022-09-23T05:39:06.932Z,98595.78
2022-09-23T05:42:08.590Z,98589.75
2022-09-23T05:45:10.024Z,98601.19
2022-09-23T05:48:11.404Z,98601.25
2022-09-23T05:51:20.136Z,98601.31
2022-09-23T05:54:21.500Z,98605.78
2022-09-23T05:57:22.833Z,98600.72
2022-09-23T06:00:24.265Z,98606.97
2022-09-23T06:03:25.683Z,98601.00
2022-09-23T06:06:34.402Z,98595.94
2022-09-23T06:09:36.869Z,98592.59
2022-09-23T06:12:38.383Z,98594.44
2022-09-23T06:15:39.824Z,98591.97
2022-09-23T06:18:41.722Z,98588.66
2022-09-23T06:21:43.107Z,98594.91
2022-09-23T06:24:44.603Z,98591.47
2022-09-23T06:27:55.345Z,98580.31
2022-09-23T06:30:57.621Z,98578.69
2022-09-23T06:34:09.873Z,98577.97
2022-09-23T06:37:19.674Z,98585.84
2022-09-23T06:40:24.808Z,98587.72
2022-09-23T06:43:26.259Z,98587.72
2022-09-23T06:46:27.944Z,98586.13
2022-09-23T06:49:29.378Z,98585.34
2022-09-23T06:52:31.029Z,98586.31
2022-09-23T06:55:32.938Z,98590.72
2022-09-23T06:58:34.908Z,98591.63
2022-09-23T07:01:36.404Z,98595.97
2022-09-23T07:04:38.001Z,98598.63
2022-09-23T07:07:39.439Z,98603.94
2022-09-23T07:10:40.857Z,98610.91
2022-09-23T07:13:42.676Z,98614.44
2022-09-23T07:16:44.036Z,98612.81
2022-09-23T07:19:45.619Z,98614.66
2022-09-23T07:22:50.299Z,98614.72
2022-09-23T07:25:52.678Z,98613.94
2022-09-23T07:28:55.155Z,98618.34
2022-09-23T07:32:07.888Z,98621.88
2022-09-23T07:35:12.539Z,98626.25
2022-09-23T07:38:13.909Z,98636.72
2022-09-23T07:41:16.907Z,98635.88
2022-09-23T07:44:19.168Z,98636.81
2022-09-23T07:47:20.623Z,98650.75
2022-09-23T07:50:22.605Z,98642.09
2022-09-23T07:53:24.118Z,98647.34
2022-09-23T07:56:26.385Z,98649.94
2022-09-23T07:59:27.754Z,98656.88
2022-09-23T08:02:29.197Z,98659.50
2022-09-23T08:05:31.866Z,98664.66
2022-09-23T08:08:33.232Z,98658.56
2022-09-23T08:11:35.155Z,98660.28
2022-09-23T08:14:36.512Z,98667.25
2022-09-23T08:17:37.931Z,98667.16
2022-09-23T08:20:47.174Z,98659.25
2022-09-23T08:23:49.225Z,98661.84
2022-09-23T08:26:53.261Z,98669.56
2022-09-23T08:29:54.674Z,98651.16
2022-09-23T08:32:56.034Z,98668.25
2022-09-23T08:36:00.774Z,98667.97
2022-09-23T08:39:02.124Z,98664.09
2022-09-23T08:42:06.421Z,98666.50
2022-09-23T08:45:08.272Z,98654.22
2022-09-23T08:48:13.523Z,98667.00
2022-09-23T08:51:16.107Z,98666.28
2022-09-23T08:54:17.750Z,98655.66
2022-09-23T08:57:28.652Z,98652.69
2022-09-23T09:00:34.482Z,98657.50
2022-09-23T09:03:36.961Z,98649.63
2022-09-23T09:06:52.484Z,98640.88
2022-09-23T09:09:57.718Z,98640.75
2022-09-23T09:13:17.450Z,98640.63
2022-09-23T09:16:58.314Z,98638.00
2022-09-23T09:20:01.257Z,98628.16
2022-09-23T09:23:05.903Z,98623.00
2022-09-23T09:26:09.727Z,98625.63
2022-09-23T09:32:52.091Z,98628.41
2022-09-23T09:36:03.893Z,98618.34
2022-09-23T09:39:05.309Z,98615.84
2022-09-23T09:42:07.488Z,98607.91
2022-09-23T09:45:19.710Z,98605.09
2022-09-23T09:48:23.601Z,98586.00
2022-09-23T09:51:25.382Z,98600.91
2022-09-23T09:54:27.343Z,98600.75
2022-09-23T09:57:38.461Z,98603.56
2022-09-23T10:00:43.288Z,98585.13
2022-09-23T10:03:44.729Z,98597.69
2022-09-23T10:07:02.836Z,98597.13
2022-09-23T10:10:31.717Z,98588.66
2022-09-23T10:13:34.469Z,98578.34
2022-09-23T10:16:36.058Z,98569.22
2022-09-23T10:19:37.956Z,98568.72
2022-09-23T10:22:41.898Z,98563.63
2022-09-23T10:25:43.326Z,98553.66
2022-09-23T10:28:44.682Z,98546.72
2022-09-23T10:31:46.072Z,98535.03
2022-09-23T10:34:57.172Z,98505.91
2022-09-23T10:38:01.679Z,98527.59
2022-09-23T10:41:21.454Z,98510.03
2022-09-23T10:44:50.585Z,98519.13
2022-09-23T10:47:57.590Z,98517.78
2022-09-23T10:50:59.700Z,98524.63
2022-09-23T10:54:04.543Z,98536.25
2022-09-23T10:57:29.247Z,98519.13
2022-09-23T11:00:46.779Z,98523.56
2022-09-23T11:04:01.265Z,98516.38
2022-09-23T11:07:18.165Z,98507.19
2022-09-23T11:10:44.901Z,98487.69
2022-09-23T11:13:54.570Z,98532.44
2022-09-23T11:17:14.903Z,98521.47
2022-09-23T11:20:33.997Z,98543.22
2022-09-23T11:23:54.317Z,98550.75
2022-09-23T11:27:07.905Z,98533.56
2022-09-23T11:30:13.081Z,98533.69
2022-09-23T11:33:18.374Z,98535.25
2022-09-23T11:36:25.192Z,98512.06
2022-09-23T11:39:35.027Z,98505.59
2022-09-23T11:42:38.407Z,98491.84
2022-09-23T11:45:45.864Z,98510.06
2022-09-23T11:48:56.348Z,98482.75
2022-09-23T11:52:20.600Z,98477.66
2022-09-23T11:55:27.096Z,98460.00
2022-09-23T11:58:30.007Z,98510.66
2022-09-23T12:01:37.605Z,98485.59
2022-09-23T12:04:52.165Z,98492.56
2022-09-23T12:07:59.671Z,98490.91
2022-09-23T12:11:01.483Z,98469.22
2022-09-23T12:14:03.116Z,98507.16
2022-09-23T12:17:14.792Z,98475.25
2022-09-23T12:20:28.504Z,98447.16
2022-09-23T12:23:32.937Z,98408.34
2022-09-23T12:26:34.261Z,98488.28
2022-09-23T12:29:35.611Z,98496.53
2022-09-23T12:32:36.990Z,98435.69
2022-09-23T12:35:41.922Z,98427.25
2022-09-23T12:38:49.278Z,98481.97
2022-09-23T12:41:53.941Z,98502.53
2022-09-23T12:44:55.322Z,98483.44
2022-09-23T12:47:56.706Z,98484.56
2022-09-23T12:51:07.752Z,98473.84
2022-09-23T12:54:21.175Z,98486.53
2022-09-23T12:57:31.846Z,98497.34
2022-09-23T13:00:34.413Z,98456.50
2022-09-23T13:03:54.614Z,98454.59
2022-09-23T13:07:04.623Z,98462.69
2022-09-23T13:10:08.018Z,98444.78
2022-09-23T13:13:14.127Z,98447.56
2022-09-23T13:16:24.539Z,98441.16
2022-09-23T13:19:25.933Z,98444.00
2022-09-23T13:22:41.449Z,98430.63
2022-09-23T13:25:43.149Z,98436.81
2022-09-23T13:29:04.804Z,98438.19
2022-09-23T13:32:06.345Z,98438.19
2022-09-23T13:35:14.087Z,98448.03
2022-09-23T13:38:20.379Z,98456.84
2022-09-23T13:41:22.532Z,98440.44
2022-09-23T13:44:23.986Z,98445.53
2022-09-23T13:47:25.921Z,98454.22
2022-09-23T13:50:30.473Z,98454.22
2022-09-23T13:53:34.309Z,98447.81
2022-09-23T13:56:36.608Z,98443.09
2022-09-23T13:59:38.309Z,98442.13
2022-09-23T14:02:43.137Z,98433.53
2022-09-23T14:05:44.548Z,98445.16
2022-09-23T14:08:47.286Z,98437.34
2022-09-23T14:11:48.824Z,98440.69
2022-09-23T14:14:51.019Z,98423.31
2022-09-23T14:17:53.279Z,98424.66
2022-09-23T14:20:54.674Z,98413.41
2022-09-23T14:23:56.120Z,98410.78
2022-09-23T14:27:01.566Z,98420.44
2022-09-23T14:30:02.936Z,98416.59
2022-09-23T14:33:08.814Z,98413.53
2022-09-23T14:36:34.291Z,98419.38
2022-09-23T14:39:35.944Z,98422.06
2022-09-23T14:42:39.013Z,98432.56
2022-09-23T14:45:40.449Z,98416.56
2022-09-23T14:48:41.866Z,98414.66
2022-09-23T14:51:50.191Z,98415.53
2022-09-23T14:54:51.563Z,98411.44
2022-09-23T14:57:59.803Z,98399.06
2022-09-23T15:01:01.244Z,98399.25
2022-09-23T15:04:28.067Z,98409.38
2022-09-23T15:07:29.420Z,98404.47
2022-09-23T15:10:31.782Z,98411.78
2022-09-23T15:13:33.973Z,98414.53
2022-09-23T15:16:35.408Z,98418.56
2022-09-23T15:19:37.497Z,98402.84
2022-09-23T15:22:42.571Z,98393.22
2022-09-23T15:25:43.912Z,98387.22
2022-09-23T15:28:45.356Z,98385.31
2022-09-23T15:31:46.807Z,98389.66
2022-09-23T15:34:48.764Z,98392.50
2022-09-23T15:37:50.145Z,98388.19
2022-09-23T15:40:51.720Z,98383.81
2022-09-23T15:43:53.178Z,98379.97
2022-09-23T15:46:55.865Z,98387.13
2022-09-23T15:49:57.830Z,98387.22
2022-09-23T15:52:59.493Z,98393.59
2022-09-23T15:56:00.913Z,98383.97
2022-09-23T15:59:02.314Z,98387.63
2022-09-23T16:02:05.718Z,98383.97
2022-09-23T16:05:07.785Z,98387.63
2022-09-23T16:08:09.678Z,98379.00
2022-09-23T16:11:20.764Z,98383.50
2022-09-23T16:14:22.436Z,98372.41
2022-09-23T16:17:25.068Z,98365.81
2022-09-23T16:20:29.463Z,98365.44
2022-09-23T16:23:39.922Z,98363.97
2022-09-23T16:26:43.172Z,98379.94
2022-09-23T16:29:44.552Z,98369.72
2022-09-23T16:32:46.052Z,98372.75
2022-09-23T16:35:47.390Z,98379.28
2022-09-23T16:38:48.931Z,98377.88
2022-09-23T16:41:50.267Z,98376.34
2022-09-23T16:44:51.631Z,98374.88
2022-09-23T16:47:53.072Z,98377.78
2022-09-23T16:50:54.606Z,98386.31
2022-09-23T16:53:56.425Z,98384.16
2022-09-23T16:56:59.087Z,98386.03
2022-09-23T17:00:18.901Z,98375.81
2022-09-23T17:03:38.669Z,98378.78
2022-09-23T17:06:43.553Z,98384.50
2022-09-23T17:09:44.960Z,98371.69
2022-09-23T17:12:46.316Z,98376.25
2022-09-23T17:15:47.686Z,98374.75
2022-09-23T17:18:49.033Z,98379.41
2022-09-23T17:21:50.478Z,98374.22
2022-09-23T17:24:52.467Z,98371.44
2022-09-23T17:27:55.605Z,98364.50
2022-09-23T17:30:58.078Z,98367.16
2022-09-23T17:33:59.543Z,98371.03
2022-09-23T17:37:02.470Z,98373.06
2022-09-23T17:40:03.989Z,98376.72
2022-09-23T17:43:05.366Z,98367.28
2022-09-23T17:46:10.806Z,98363.78
2022-09-23T17:49:12.302Z,98362.19
2022-09-23T17:52:13.662Z,98351.88
2022-09-23T17:55:16.675Z,98360.00
2022-09-23T17:58:18.910Z,98361.03
2022-09-23T18:01:21.852Z,98371.53
2022-09-23T18:04:23.307Z,98357.56
2022-09-23T18:07:24.789Z,98358.56
2022-09-23T18:10:26.759Z,98355.19
2022-09-23T18:13:28.125Z,98355.25
2022-09-23T18:16:30.413Z,98360.50
2022-09-23T18:19:31.815Z,98359.88
2022-09-23T18:22:33.157Z,98354.84
2022-09-23T18:25:39.615Z,98362.00
2022-09-23T18:28:41.166Z,98355.06
2022-09-23T18:31:44.143Z,98359.59
2022-09-23T18:34:45.660Z,98351.03
2022-09-23T18:37:46.992Z,98355.47
2022-09-23T18:40:55.401Z,98350.38
2022-09-23T18:43:57.272Z,98350.56
2022-09-23T18:46:58.629Z,98349.75
2022-09-23T18:50:18.846Z,98350.63
2022-09-23T18:53:20.179Z,98349.84
2022-09-23T18:56:21.582Z,98348.22
2022-09-23T18:59:26.225Z,98342.16
2022-09-23T19:02:27.629Z,98340.34
2022-09-23T19:05:29.078Z,98332.50
2022-09-23T19:08:30.447Z,98337.91
2022-09-23T19:11:32.216Z,98340.78
2022-09-23T19:14:33.807Z,98333.00
2022-09-23T19:17:35.198Z,98341.78
2022-09-23T19:20:36.539Z,98338.25
2022-09-23T19:23:38.090Z,98333.91
2022-09-23T19:26:39.855Z,98332.19
2022-09-23T19:29:41.703Z,98330.50
2022-09-23T19:32:44.222Z,98335.72
2022-09-23T19:35:49.127Z,98333.13
2022-09-23T19:38:52.653Z,98326.06
2022-09-23T19:41:56.709Z,98326.97
2022-09-23T19:44:58.093Z,98329.53
2022-09-23T19:48:00.841Z,98335.81
2022-09-23T19:51:02.665Z,98334.22
2022-09-23T19:54:04.603Z,98328.13
2022-09-23T19:57:06.419Z,98323.84
2022-09-23T20:00:08.074Z,98325.63
2022-09-23T20:03:09.490Z,98329.16
2022-09-23T20:06:10.857Z,98318.78
2022-09-23T20:09:12.280Z,98312.88
2022-09-23T20:12:14.187Z,98304.22
2022-09-23T20:15:16.281Z,98312.13
2022-09-23T20:18:17.646Z,98307.72
2022-09-23T20:21:19.004Z,98304.19
2022-09-23T20:24:20.363Z,98298.97
2022-09-23T20:27:22.122Z,98305.91
2022-09-23T20:30:23.476Z,98301.69
2022-09-23T20:33:24.837Z,98296.50
2022-09-23T20:36:26.367Z,98295.59
2022-09-23T20:39:28.183Z,98287.78
2022-09-23T20:42:29.541Z,98292.19
2022-09-23T20:45:30.890Z,98291.34
2022-09-23T20:48:32.247Z,98303.63
2022-09-23T20:51:33.662Z,98295.78
2022-09-23T20:54:35.713Z,98294.16
2022-09-23T20:57:37.135Z,98295.94
2022-09-23T21:00:38.513Z,98292.41
2022-09-23T21:03:40.585Z,98292.41
2022-09-23T21:06:41.951Z,98294.19
2022-09-23T21:09:43.341Z,98299.53
2022-09-23T21:12:50.420Z,98303.06
2022-09-23T21:15:51.877Z,98305.75
2022-09-23T21:18:53.285Z,98303.16
2022-09-23T21:21:54.992Z,98311.94
2022-09-23T21:28:18.459Z,98310.09
2022-09-23T21:31:23.566Z,98298.00
2022-09-23T21:34:28.148Z,98307.63
2022-09-23T21:37:29.517Z,98302.47
2022-09-23T21:40:49.692Z,98304.25
2022-09-23T21:43:51.125Z,98297.22
2022-09-23T21:46:54.257Z,98291.22
2022-09-23T21:49:55.886Z,98287.78
2022-09-23T21:52:57.295Z,98286.94
2022-09-23T21:56:08.821Z,98287.00
2022-09-23T21:59:10.392Z,98289.53
2022-09-23T22:02:11.751Z,98289.56
2022-09-23T22:05:13.134Z,98289.50
2022-09-23T22:08:14.484Z,98286.88
2022-09-23T22:11:35.494Z,98287.81
2022-09-23T22:14:37.016Z,98283.44
2022-09-23T22:17:39.115Z,98287.72
2022-09-23T22:20:41.320Z,98286.00
2022-09-23T22:23:42.707Z,98292.94
2022-09-23T22:26:44.220Z,98292.16
2022-09-23T22:30:04.469Z,98286.09
2022-09-23T22:33:09.077Z,98280.91
2022-09-23T22:36:12.771Z,98277.47
2022-09-23T22:39:14.135Z,98272.25
2022-09-23T22:42:16.097Z,98267.97
2022-09-23T22:45:17.502Z,98267.97
2022-09-23T22:48:19.941Z,98260.16
2022-09-23T22:51:22.243Z,98258.44
2022-09-23T22:54:23.659Z,98254.06
2022-09-23T22:57:25.014Z,98250.63
2022-09-23T23:00:27.956Z,98251.53
2022-09-23T23:03:30.517Z,98247.19
2022-09-23T23:06:36.529Z,98241.94
2022-09-23T23:09:37.929Z,98244.50
2022-09-23T23:12:40.089Z,98253.19
2022-09-23T23:15:41.624Z,98241.94
2022-09-23T23:18:43.235Z,98239.31
2022-09-23T23:21:44.875Z,98235.94
2022-09-23T23:24:46.376Z,98231.63
2022-09-23T23:27:47.755Z,98235.13
2022-09-23T23:30:49.095Z,98231.63
2022-09-23T23:33:50.491Z,98228.16
2022-09-23T23:36:54.591Z,98226.41
2022-09-23T23:39:56.397Z,98230.75
2022-09-23T23:42:58.647Z,98228.19
2022-09-23T23:46:01.423Z,98218.63
2022-09-23T23:49:02.868Z,98215.19
2022-09-23T23:52:04.199Z,98218.66
2022-09-23T23:55:05.639Z,98215.22
2022-09-23T23:58:07.006Z,98216.13
